sensor_id;sensor_type;location;lat;lon;timestamp;temperature;humidity
1568;DHT22;777;47.156;8.326;2024-02-26T00:23:53;6.20;99.90
1568;DHT22;777;47.156;8.326;2024-02-26T00:53:56;6.00;99.90
1568;DHT22;777;47.156;8.326;2024-02-26T01:24:00;6.30;99.90
1568;DHT22;777;47.156;8.326;2024-02-26T01:54:03;5.80;99.90
1568;DHT22;777;47.156;8.326;2024-02-26T02:24:07;5.80;99.90
1568;DHT22;777;47.156;8.326;2024-02-26T02:54:10;5.50;99.90
1568;DHT22;777;47.156;8.326;2024-02-26T03:24:14;5.40;99.90
1568;DHT22;777;47.156;8.326;2024-02-26T03:54:17;5.00;99.90
1568;DHT22;777;47.156;8.326;2024-02-26T04:24:21;4.90;99.90
1568;DHT22;777;47.156;8.326;2024-02-26T04:54:24;4.70;99.90
1568;DHT22;777;47.156;8.326;2024-02-26T05:24:29;4.90;99.90
1568;DHT22;777;47.156;8.326;2024-02-26T05:54:32;4.80;99.90
1568;DHT22;777;47.156;8.326;2024-02-26T06:24:36;4.40;99.90
1568;DHT22;777;47.156;8.326;2024-02-26T06:54:39;4.50;99.90
1568;DHT22;777;47.156;8.326;2024-02-26T07:24:43;5.20;99.90
1568;DHT22;777;47.156;8.326;2024-02-26T07:54:47;10.60;99.90
1568;DHT22;777;47.156;8.326;2024-02-26T08:24:51;13.20;99.90
1568;DHT22;777;47.156;8.326;2024-02-26T08:54:54;12.00;99.90
1568;DHT22;777;47.156;8.326;2024-02-26T09:24:57;9.60;99.90
1568;DHT22;777;47.156;8.326;2024-02-26T09:55:01;9.50;99.90
1568;DHT22;777;47.156;8.326;2024-02-26T10:25:06;9.50;99.90
1568;DHT22;777;47.156;8.326;2024-02-26T10:55:15;8.90;99.90
1568;DHT22;777;47.156;8.326;2024-02-26T11:25:20;9.40;99.90
1568;DHT22;777;47.156;8.326;2024-02-26T11:55:33;9.60;99.90
1568;DHT22;777;47.156;8.326;2024-02-26T12:25:36;9.80;99.90
1568;DHT22;777;47.156;8.326;2024-02-26T12:55:40;11.10;99.90
1568;DHT22;777;47.156;8.326;2024-02-26T13:25:44;10.80;99.90
1568;DHT22;777;47.156;8.326;2024-02-26T13:55:47;11.00;99.90
1568;DHT22;777;47.156;8.326;2024-02-26T14:25:51;10.30;99.90
1568;DHT22;777;47.156;8.326;2024-02-26T14:55:54;10.00;99.90
1568;DHT22;777;47.156;8.326;2024-02-26T15:25:58;10.40;99.90
1568;DHT22;777;47.156;8.326;2024-02-26T15:56:01;11.20;99.90
1568;DHT22;777;47.156;8.326;2024-02-26T16:26:06;11.10;99.90
1568;DHT22;777;47.156;8.326;2024-02-26T16:56:11;9.40;99.90
1568;DHT22;777;47.156;8.326;2024-02-26T17:26:18;9.20;99.90
1568;DHT22;777;47.156;8.326;2024-02-26T17:56:22;7.80;99.90
1568;DHT22;777;47.156;8.326;2024-02-26T18:26:25;6.80;99.90
1568;DHT22;777;47.156;8.326;2024-02-26T18:56:28;6.50;99.90
1568;DHT22;777;47.156;8.326;2024-02-26T19:26:32;6.10;99.90
1568;DHT22;777;47.156;8.326;2024-02-26T19:56:36;5.20;99.90
1568;DHT22;777;47.156;8.326;2024-02-26T20:26:40;4.80;99.90
1568;DHT22;777;47.156;8.326;2024-02-26T20:56:45;4.30;99.90
1568;DHT22;777;47.156;8.326;2024-02-26T21:26:49;4.30;99.90
1568;DHT22;777;47.156;8.326;2024-02-26T21:56:53;4.50;99.90
1568;DHT22;777;47.156;8.326;2024-02-26T22:26:56;4.40;99.90
1568;DHT22;777;47.156;8.326;2024-02-26T22:56:59;4.30;99.90
1568;DHT22;777;47.156;8.326;2024-02-26T23:27:04;4.20;99.90
1568;DHT22;777;47.156;8.326;2024-02-26T23:57:07;4.20;99.90
